createdAt,value
2023-03-28T00:00:18.211Z,48.86
2023-03-28T00:02:44.833Z,48.58
2023-03-28T00:05:11.505Z,48.49
2023-03-28T00:07:38.293Z,48.98
2023-03-28T00:10:04.938Z,48.75
2023-03-28T00:12:31.532Z,48.68
2023-03-28T00:14:58.109Z,48.69
2023-03-28T00:17:24.728Z,48.85
2023-03-28T00:19:51.562Z,49.51
2023-03-28T00:22:18.095Z,49.62
2023-03-28T00:24:44.662Z,49.45
2023-03-28T00:27:11.250Z,49.62
2023-03-28T00:29:37.823Z,50.42
2023-03-28T00:32:04.428Z,50.53
2023-03-28T00:34:31.006Z,50.30
2023-03-28T00:36:57.629Z,52.21
2023-03-28T00:39:24.221Z,51.82
2023-03-28T00:41:50.799Z,52.23
2023-03-28T00:44:17.403Z,52.18
2023-03-28T00:46:44.082Z,50.08
2023-03-28T00:49:10.588Z,51.76
2023-03-28T00:51:37.159Z,50.94
2023-03-28T00:54:03.762Z,50.45
2023-03-28T00:56:30.377Z,50.74
2023-03-28T00:58:56.934Z,50.58
2023-03-28T01:01:23.619Z,51.17
2023-03-28T01:03:50.207Z,50.47
2023-03-28T01:06:16.775Z,52.62
2023-03-28T01:08:43.314Z,52.40
2023-03-28T01:11:09.903Z,53.42
2023-03-28T01:13:36.495Z,52.26
2023-03-28T01:16:03.345Z,52.33
2023-03-28T01:18:30.207Z,53.29
2023-03-28T01:20:56.779Z,53.17
2023-03-28T01:23:23.391Z,52.75
2023-03-28T01:25:49.965Z,53.46
2023-03-28T01:28:16.530Z,53.89
2023-03-28T01:30:43.087Z,54.22
2023-03-28T01:33:09.681Z,55.54
2023-03-28T01:35:36.381Z,55.32
2023-03-28T01:38:02.993Z,55.00
2023-03-28T01:40:29.549Z,55.29
2023-03-28T01:42:56.112Z,55.98
2023-03-28T01:45:22.844Z,55.72
2023-03-28T01:47:49.805Z,57.84
2023-03-28T01:50:16.441Z,57.89
2023-03-28T01:52:43.046Z,58.38
2023-03-28T01:55:09.645Z,60.07
2023-03-28T01:57:36.287Z,61.17
2023-03-28T02:00:02.888Z,60.75
2023-03-28T02:02:29.666Z,60.71
2023-03-28T02:04:57.170Z,60.17
2023-03-28T02:07:23.942Z,60.26
2023-03-28T02:09:50.573Z,60.69
2023-03-28T02:12:18.184Z,60.14
2023-03-28T02:14:44.769Z,61.30
2023-03-28T02:17:11.330Z,61.95
2023-03-28T02:19:37.925Z,63.01
2023-03-28T02:22:04.475Z,62.36
2023-03-28T02:24:31.025Z,62.69
2023-03-28T02:26:57.616Z,63.20
2023-03-28T02:29:24.174Z,62.64
2023-03-28T02:31:50.798Z,61.82
2023-03-28T02:34:17.382Z,61.46
2023-03-28T02:36:43.968Z,62.76
2023-03-28T02:39:10.555Z,62.36
2023-03-28T02:41:37.133Z,63.82
2023-03-28T02:44:03.677Z,63.21
2023-03-28T02:46:31.316Z,63.74
2023-03-28T02:48:57.953Z,62.52
2023-03-28T02:51:24.540Z,61.62
2023-03-28T02:53:51.109Z,60.09
2023-03-28T02:56:17.818Z,60.00
2023-03-28T02:58:44.466Z,59.68
2023-03-28T03:01:11.077Z,59.24
2023-03-28T03:03:37.807Z,59.53
2023-03-28T03:06:04.535Z,60.58
2023-03-28T03:08:31.081Z,60.38
2023-03-28T03:10:57.714Z,59.54
2023-03-28T03:13:24.272Z,59.63
2023-03-28T03:15:50.942Z,59.91
2023-03-28T03:18:17.538Z,59.42
2023-03-28T03:20:44.130Z,59.66
2023-03-28T03:23:10.720Z,60.05
2023-03-28T03:25:37.336Z,59.60
2023-03-28T03:28:03.880Z,60.66
2023-03-28T03:30:30.428Z,60.01
2023-03-28T03:32:57.048Z,60.39
2023-03-28T03:35:23.728Z,60.50
2023-03-28T03:37:50.339Z,60.68
2023-03-28T03:40:16.910Z,60.53
2023-03-28T03:42:43.467Z,61.04
2023-03-28T03:45:10.075Z,60.97
2023-03-28T03:47:36.699Z,61.05
2023-03-28T03:50:03.281Z,61.25
2023-03-28T03:52:29.865Z,61.60
2023-03-28T03:54:56.431Z,61.38
2023-03-28T03:57:23.075Z,61.42
2023-03-28T03:59:49.733Z,61.22
2023-03-28T04:02:16.415Z,60.42
2023-03-28T04:04:43.067Z,60.67
2023-03-28T04:07:09.753Z,60.10
2023-03-28T04:09:36.333Z,60.40
2023-03-28T04:12:02.913Z,59.97
2023-03-28T04:14:29.450Z,60.07
2023-03-28T04:16:56.091Z,59.73
2023-03-28T04:19:22.754Z,59.96
2023-03-28T04:21:49.462Z,59.18
2023-03-28T04:24:16.074Z,58.96
2023-03-28T04:26:45.017Z,58.96
2023-03-28T04:29:11.613Z,60.09
2023-03-28T04:31:38.225Z,59.55
2023-03-28T04:34:05.071Z,59.52
2023-03-28T04:36:31.732Z,59.89
2023-03-28T04:38:58.320Z,58.87
2023-03-28T04:41:24.899Z,59.33
2023-03-28T04:43:51.541Z,58.72
2023-03-28T04:46:18.235Z,58.79
2023-03-28T04:48:44.929Z,59.18
2023-03-28T04:51:11.485Z,58.50
2023-03-28T04:53:38.088Z,59.12
2023-03-28T04:56:04.689Z,58.73
2023-03-28T04:58:31.300Z,58.42
2023-03-28T05:00:58.053Z,58.91
2023-03-28T05:03:24.966Z,58.47
2023-03-28T05:05:51.700Z,58.26
2023-03-28T05:08:18.687Z,58.32
2023-03-28T05:10:45.288Z,59.33
2023-03-28T05:13:11.871Z,59.64
2023-03-28T05:15:38.451Z,58.23
2023-03-28T05:18:05.080Z,58.30
2023-03-28T05:20:31.648Z,59.07
2023-03-28T05:22:58.272Z,58.52
2023-03-28T05:25:25.240Z,59.09
2023-03-28T05:27:51.839Z,58.25
2023-03-28T05:30:18.530Z,58.25
2023-03-28T05:32:45.153Z,58.26
2023-03-28T05:35:11.745Z,57.79
2023-03-28T05:37:41.423Z,57.37
2023-03-28T05:40:11.473Z,57.52
2023-03-28T05:42:38.044Z,57.92
2023-03-28T05:45:04.643Z,58.32
2023-03-28T05:47:31.293Z,58.24
2023-03-28T05:49:57.824Z,58.79
2023-03-28T05:52:24.387Z,59.46
2023-03-28T05:54:52.356Z,58.00
2023-03-28T05:57:19.269Z,58.30
2023-03-28T05:59:45.883Z,58.71
2023-03-28T06:02:12.442Z,58.32
2023-03-28T06:04:39.126Z,58.02
2023-03-28T06:07:05.755Z,57.07
2023-03-28T06:09:32.349Z,57.55
2023-03-28T06:11:58.897Z,56.73
2023-03-28T06:14:25.445Z,55.60
2023-03-28T06:16:52.143Z,56.01
2023-03-28T06:19:19.007Z,55.69
2023-03-28T06:21:45.705Z,55.57
2023-03-28T06:24:12.335Z,55.72
2023-03-28T06:26:38.867Z,55.24
2023-03-28T06:29:05.445Z,54.97
2023-03-28T06:31:32.159Z,54.80
2023-03-28T06:33:58.767Z,48.56
2023-03-28T06:36:25.317Z,51.18
2023-03-28T06:38:51.958Z,52.10
2023-03-28T06:41:18.562Z,52.99
2023-03-28T06:43:45.192Z,52.39
2023-03-28T06:46:11.810Z,48.29
2023-03-28T06:48:38.405Z,50.53
2023-03-28T06:51:05.020Z,50.48
2023-03-28T06:53:31.607Z,50.25
2023-03-28T06:55:58.165Z,50.45
2023-03-28T06:58:24.740Z,49.40
2023-03-28T07:00:51.352Z,48.84
2023-03-28T07:03:17.997Z,49.04
2023-03-28T07:05:44.670Z,48.16
2023-03-28T07:08:11.233Z,48.57
2023-03-28T07:10:37.857Z,48.65
2023-03-28T07:13:04.458Z,47.86
2023-03-28T07:15:31.036Z,47.70
2023-03-28T07:17:57.647Z,48.10
2023-03-28T07:20:24.325Z,46.46
2023-03-28T07:22:50.963Z,47.49
2023-03-28T07:25:17.564Z,45.96
2023-03-28T07:27:44.158Z,45.37
2023-03-28T07:30:10.732Z,42.50
2023-03-28T07:32:48.100Z,44.29
2023-03-28T07:35:21.059Z,44.84
2023-03-28T07:37:47.631Z,45.17
2023-03-28T07:40:14.386Z,44.23
2023-03-28T07:42:40.992Z,45.30
2023-03-28T07:45:07.545Z,43.45
2023-03-28T07:47:34.191Z,44.02
2023-03-28T07:50:00.756Z,43.10
2023-03-28T07:52:27.362Z,42.54
2023-03-28T07:54:54.091Z,42.46
2023-03-28T07:57:20.764Z,43.85
2023-03-28T07:59:47.362Z,42.09
2023-03-28T08:02:13.964Z,42.03
2023-03-28T08:04:40.535Z,41.83
2023-03-28T08:07:07.097Z,41.64
2023-03-28T08:09:33.637Z,42.71
2023-03-28T08:12:00.244Z,42.01
2023-03-28T08:14:26.813Z,42.62
2023-03-28T08:16:53.373Z,42.52
2023-03-28T08:19:19.938Z,42.08
2023-03-28T08:21:46.493Z,41.33
2023-03-28T08:24:19.572Z,42.19
2023-03-28T08:26:52.178Z,40.71
2023-03-28T08:29:18.849Z,40.44
2023-03-28T08:31:45.513Z,39.63
2023-03-28T08:34:12.256Z,39.78
2023-03-28T08:36:38.811Z,40.24
2023-03-28T08:39:05.465Z,40.38
2023-03-28T08:41:32.055Z,40.58
2023-03-28T08:43:58.621Z,40.07
2023-03-28T08:46:25.228Z,39.15
2023-03-28T08:48:51.947Z,39.34
2023-03-28T08:51:18.517Z,37.03
2023-03-28T08:53:45.357Z,36.97
2023-03-28T08:56:11.914Z,39.02
2023-03-28T08:58:38.764Z,38.61
2023-03-28T09:01:06.888Z,38.34
2023-03-28T09:03:33.552Z,38.08
2023-03-28T09:06:00.382Z,38.90
2023-03-28T09:08:27.157Z,37.16
2023-03-28T09:10:53.772Z,35.82
2023-03-28T09:13:20.404Z,37.06
2023-03-28T09:15:46.961Z,36.75
2023-03-28T09:18:13.840Z,37.61
2023-03-28T09:20:42.628Z,35.31
2023-03-28T09:23:09.805Z,35.41
2023-03-28T09:25:36.383Z,32.79
2023-03-28T09:28:03.093Z,33.85
2023-03-28T09:30:29.721Z,33.96
2023-03-28T09:32:56.578Z,33.77
2023-03-28T09:35:23.225Z,33.03
2023-03-28T09:37:49.874Z,32.67
2023-03-28T09:40:16.442Z,34.82
2023-03-28T09:42:43.047Z,33.44
2023-03-28T09:45:09.721Z,33.72
2023-03-28T09:47:36.731Z,33.08
2023-03-28T09:50:12.405Z,33.56
2023-03-28T09:52:39.958Z,33.45
2023-03-28T09:55:07.241Z,32.90
2023-03-28T09:57:33.877Z,33.62
2023-03-28T10:00:00.479Z,33.06
2023-03-28T10:02:27.116Z,33.91
2023-03-28T10:04:53.780Z,33.56
2023-03-28T10:07:20.340Z,33.78
2023-03-28T10:09:46.891Z,33.69
2023-03-28T10:12:13.525Z,33.62
2023-03-28T10:14:40.095Z,33.74
2023-03-28T10:17:06.670Z,33.58
2023-03-28T10:19:33.309Z,32.49
2023-03-28T10:21:59.880Z,32.66
2023-03-28T10:24:26.418Z,32.90
2023-03-28T10:26:53.004Z,31.81
2023-03-28T10:29:19.696Z,31.26
2023-03-28T10:31:46.391Z,31.83
2023-03-28T10:34:13.130Z,31.90
2023-03-28T10:36:39.700Z,32.11
2023-03-28T10:39:06.366Z,31.57
2023-03-28T10:41:32.941Z,31.25
2023-03-28T10:43:59.523Z,31.39
2023-03-28T10:46:26.100Z,32.18
2023-03-28T10:48:52.960Z,30.89
2023-03-28T10:51:19.587Z,29.82
2023-03-28T10:53:46.155Z,31.10
2023-03-28T10:56:12.712Z,30.40
2023-03-28T10:58:39.287Z,30.65
2023-03-28T11:01:05.873Z,30.39
2023-03-28T11:03:32.594Z,30.00
2023-03-28T11:06:08.737Z,30.66
2023-03-28T11:08:36.347Z,30.41
2023-03-28T11:11:03.066Z,30.85
2023-03-28T11:13:29.842Z,30.32
2023-03-28T11:15:56.459Z,31.39
2023-03-28T11:18:23.023Z,31.47
2023-03-28T11:20:49.678Z,31.81
2023-03-28T11:23:16.282Z,32.70
2023-03-28T11:25:42.845Z,32.44
2023-03-28T11:28:09.409Z,34.72
2023-03-28T11:30:35.974Z,34.52
2023-03-28T11:33:02.800Z,34.31
2023-03-28T11:35:29.419Z,33.97
2023-03-28T11:37:56.210Z,33.88
2023-03-28T11:40:22.830Z,33.16
2023-03-28T11:42:49.395Z,33.54
2023-03-28T11:45:15.987Z,32.45
2023-03-28T11:47:42.665Z,33.05
2023-03-28T11:50:09.267Z,32.05
2023-03-28T11:52:36.762Z,31.84
2023-03-28T11:55:03.567Z,30.19
2023-03-28T11:57:30.164Z,32.12
2023-03-28T11:59:57.774Z,32.44
2023-03-28T12:02:24.418Z,32.80
2023-03-28T12:04:51.129Z,32.57
2023-03-28T12:07:17.700Z,32.51
2023-03-28T12:09:44.263Z,31.94
2023-03-28T12:12:10.843Z,32.12
2023-03-28T12:14:37.418Z,32.86
2023-03-28T12:17:04.102Z,33.20
2023-03-28T12:19:30.766Z,31.32
2023-03-28T12:21:57.376Z,31.98
2023-03-28T12:24:24.008Z,32.04
2023-03-28T12:26:50.574Z,31.33
2023-03-28T12:29:17.162Z,29.37
2023-03-28T12:31:43.726Z,30.08
2023-03-28T12:34:10.364Z,30.88
2023-03-28T12:36:36.936Z,31.87
2023-03-28T12:39:03.478Z,31.03
2023-03-28T12:41:30.097Z,31.11
2023-03-28T12:43:57.546Z,32.46
2023-03-28T12:46:24.194Z,32.65
2023-03-28T12:48:50.798Z,29.77
2023-03-28T12:51:17.444Z,28.74
2023-03-28T12:53:44.011Z,29.10
2023-03-28T12:56:10.781Z,29.31
2023-03-28T12:58:37.324Z,28.13
2023-03-28T13:01:03.994Z,29.50
2023-03-28T13:03:30.584Z,29.91
2023-03-28T13:05:57.160Z,30.13
2023-03-28T13:08:24.434Z,29.95
2023-03-28T13:10:51.109Z,28.72
2023-03-28T13:13:17.698Z,29.07
2023-03-28T13:15:44.337Z,29.33
2023-03-28T13:18:10.952Z,29.22
2023-03-28T13:20:37.633Z,28.66
2023-03-28T13:23:04.189Z,28.63
2023-03-28T13:25:30.765Z,29.27
2023-03-28T13:27:57.325Z,28.20
2023-03-28T13:30:23.907Z,29.27
2023-03-28T13:32:50.539Z,27.82
2023-03-28T13:35:17.143Z,29.42
2023-03-28T13:37:43.720Z,28.88
2023-03-28T13:40:10.318Z,28.50
2023-03-28T13:42:36.914Z,29.63
2023-03-28T13:45:03.468Z,27.79
2023-03-28T13:47:30.138Z,27.83
2023-03-28T13:49:56.715Z,28.48
2023-03-28T13:52:23.354Z,28.85
2023-03-28T13:54:49.949Z,27.55
2023-03-28T13:57:16.599Z,27.68
2023-03-28T13:59:43.232Z,27.31
2023-03-28T14:02:09.847Z,28.01
2023-03-28T14:04:36.510Z,26.69
2023-03-28T14:07:03.121Z,26.47
2023-03-28T14:09:30.720Z,27.05
2023-03-28T14:11:57.258Z,27.84
2023-03-28T14:14:23.868Z,27.66
2023-03-28T14:16:50.506Z,27.87
2023-03-28T14:19:19.025Z,29.14
2023-03-28T14:21:47.083Z,27.91
2023-03-28T14:24:13.696Z,28.00
2023-03-28T14:26:40.282Z,27.10
2023-03-28T14:29:07.018Z,27.19
2023-03-28T14:31:33.617Z,28.18
2023-03-28T14:34:00.339Z,27.93
2023-03-28T14:36:26.906Z,28.68
2023-03-28T14:38:53.470Z,28.44
2023-03-28T14:41:20.284Z,29.18
2023-03-28T14:43:46.828Z,29.06
2023-03-28T14:46:13.494Z,27.94
2023-03-28T14:48:40.143Z,28.08
2023-03-28T14:51:06.714Z,27.76
2023-03-28T14:53:33.270Z,27.46
2023-03-28T14:56:02.214Z,27.78
2023-03-28T14:58:30.025Z,27.50
2023-03-28T15:00:56.693Z,27.10
2023-03-28T15:03:23.386Z,28.40
2023-03-28T15:05:50.022Z,27.25
2023-03-28T15:08:16.634Z,26.52
2023-03-28T15:10:43.223Z,27.34
2023-03-28T15:13:09.846Z,27.47
2023-03-28T15:15:36.453Z,27.57
2023-03-28T15:18:03.231Z,27.34
2023-03-28T15:20:30.013Z,27.61
2023-03-28T15:22:56.569Z,28.71
2023-03-28T15:25:23.244Z,28.24
2023-03-28T15:27:49.791Z,27.00
2023-03-28T15:30:16.523Z,27.06
2023-03-28T15:32:43.090Z,26.91
2023-03-28T15:35:12.136Z,27.28
2023-03-28T15:37:39.159Z,27.08
2023-03-28T15:40:05.765Z,27.73
2023-03-28T15:42:32.357Z,27.86
2023-03-28T15:44:58.944Z,27.56
2023-03-28T15:47:25.577Z,28.41
2023-03-28T15:49:52.188Z,28.08
2023-03-28T15:52:18.745Z,27.50
2023-03-28T15:54:45.374Z,28.30
2023-03-28T15:57:11.983Z,27.70
2023-03-28T15:59:38.633Z,28.57
2023-03-28T16:02:05.237Z,28.78
2023-03-28T16:04:31.914Z,26.14
2023-03-28T16:06:58.493Z,28.02
2023-03-28T16:09:25.101Z,27.68
2023-03-28T16:11:51.706Z,28.84
2023-03-28T16:14:18.281Z,29.25
2023-03-28T16:16:44.929Z,30.41
2023-03-28T16:19:11.542Z,29.93
2023-03-28T16:21:38.159Z,29.78
2023-03-28T16:24:04.710Z,30.00
2023-03-28T16:26:31.334Z,30.68
2023-03-28T16:28:57.885Z,31.26
2023-03-28T16:31:24.585Z,31.29
2023-03-28T16:33:51.271Z,30.88
2023-03-28T16:36:17.917Z,31.65
2023-03-28T16:38:44.542Z,31.69
2023-03-28T16:41:11.188Z,31.66
2023-03-28T16:43:37.777Z,31.30
2023-03-28T16:46:04.527Z,31.43
2023-03-28T16:48:31.288Z,31.92
2023-03-28T16:50:57.854Z,31.03
2023-03-28T16:53:24.495Z,31.53
2023-03-28T16:55:51.063Z,31.80
2023-03-28T16:58:17.691Z,32.56
2023-03-28T17:00:44.448Z,32.71
2023-03-28T17:03:11.190Z,32.81
2023-03-28T17:05:37.895Z,32.65
2023-03-28T17:08:04.486Z,32.11
2023-03-28T17:10:31.063Z,32.22
2023-03-28T17:12:57.612Z,32.52
2023-03-28T17:15:24.190Z,32.19
2023-03-28T17:17:50.844Z,32.54
2023-03-28T17:20:17.466Z,32.88
2023-03-28T17:22:44.043Z,32.65
2023-03-28T17:25:10.649Z,33.25
2023-03-28T17:27:37.212Z,32.67
2023-03-28T17:30:03.799Z,33.13
2023-03-28T17:32:30.752Z,33.32
2023-03-28T17:34:57.391Z,33.25
2023-03-28T17:37:23.992Z,32.87
2023-03-28T17:39:50.599Z,33.30
2023-03-28T17:42:17.154Z,33.42
2023-03-28T17:44:43.786Z,34.02
2023-03-28T17:47:10.357Z,33.71
2023-03-28T17:49:36.972Z,33.54
2023-03-28T17:52:03.557Z,33.41
2023-03-28T17:54:30.205Z,33.72
2023-03-28T17:56:56.820Z,33.89
2023-03-28T17:59:23.404Z,33.50
2023-03-28T18:01:50.036Z,33.81
2023-03-28T18:04:16.636Z,33.55
2023-03-28T18:06:43.205Z,34.44
2023-03-28T18:09:09.766Z,34.40
2023-03-28T18:11:36.463Z,34.56
2023-03-28T18:14:03.027Z,34.68
2023-03-28T18:16:29.622Z,35.26
2023-03-28T18:18:56.244Z,35.52
2023-03-28T18:21:22.794Z,35.18
2023-03-28T18:23:49.415Z,35.53
2023-03-28T18:26:15.972Z,36.28
2023-03-28T18:28:42.547Z,36.06
2023-03-28T18:31:09.166Z,36.03
2023-03-28T18:33:35.759Z,36.26
2023-03-28T18:36:02.558Z,36.78
2023-03-28T18:38:29.298Z,36.40
2023-03-28T18:40:55.910Z,36.73
2023-03-28T18:43:23.094Z,36.74
2023-03-28T18:45:49.772Z,37.39
2023-03-28T18:48:16.429Z,37.44
2023-03-28T18:50:43.007Z,38.53
2023-03-28T18:53:11.882Z,38.37
2023-03-28T18:55:38.465Z,38.94
2023-03-28T18:58:05.042Z,40.21
2023-03-28T19:00:31.605Z,39.80
2023-03-28T19:02:58.362Z,39.87
2023-03-28T19:05:25.049Z,39.51
2023-03-28T19:07:51.697Z,39.62
2023-03-28T19:10:18.287Z,39.59
2023-03-28T19:12:44.891Z,39.73
2023-03-28T19:15:11.471Z,40.57
2023-03-28T19:17:38.145Z,40.23
2023-03-28T19:20:04.786Z,40.27
2023-03-28T19:22:31.362Z,40.31
2023-03-28T19:24:57.959Z,40.35
2023-03-28T19:27:24.549Z,40.46
2023-03-28T19:29:51.104Z,40.57
2023-03-28T19:32:17.701Z,40.64
2023-03-28T19:34:44.255Z,41.10
2023-03-28T19:37:10.850Z,41.94
2023-03-28T19:39:41.937Z,42.40
2023-03-28T19:42:08.496Z,42.63
2023-03-28T19:44:35.105Z,42.63
2023-03-28T19:47:01.742Z,42.49
2023-03-28T19:52:12.568Z,41.64
2023-03-28T19:54:39.136Z,42.16
2023-03-28T19:57:08.050Z,42.13
2023-03-28T19:59:35.124Z,41.68
2023-03-28T20:02:01.930Z,42.09
2023-03-28T20:04:28.637Z,41.57
2023-03-28T20:06:55.260Z,41.51
2023-03-28T20:09:21.831Z,41.44
2023-03-28T20:11:48.390Z,42.65
2023-03-28T20:14:14.952Z,41.68
2023-03-28T20:16:41.481Z,41.47
2023-03-28T20:19:08.064Z,41.05
2023-03-28T20:21:34.649Z,41.96
2023-03-28T20:24:01.214Z,41.88
2023-03-28T20:26:27.846Z,41.14
2023-03-28T20:28:54.478Z,41.00
2023-03-28T20:31:21.080Z,41.79
2023-03-28T20:33:47.918Z,41.22
2023-03-28T20:36:14.493Z,41.60
2023-03-28T20:38:41.073Z,41.42
2023-03-28T20:41:07.629Z,41.72
2023-03-28T20:43:34.208Z,41.32
2023-03-28T20:46:00.778Z,40.62
2023-03-28T20:48:27.324Z,41.41
2023-03-28T20:50:53.914Z,42.02
2023-03-28T20:53:20.520Z,41.43
2023-03-28T20:55:47.094Z,41.83
2023-03-28T20:58:13.693Z,41.57
2023-03-28T21:00:40.345Z,41.43
2023-03-28T21:03:06.941Z,41.48
2023-03-28T21:05:33.549Z,42.27
2023-03-28T21:08:00.201Z,42.09
2023-03-28T21:10:28.657Z,42.69
2023-03-28T21:12:55.252Z,43.76
2023-03-28T21:15:21.845Z,44.15
2023-03-28T21:17:48.511Z,44.61
2023-03-28T21:20:15.135Z,43.88
2023-03-28T21:22:41.721Z,44.22
2023-03-28T21:25:08.317Z,44.38
2023-03-28T21:27:34.926Z,44.11
2023-03-28T21:30:01.559Z,44.10
2023-03-28T21:32:28.306Z,44.38
2023-03-28T21:34:54.909Z,44.25
2023-03-28T21:37:21.491Z,45.22
2023-03-28T21:39:48.099Z,45.42
2023-03-28T21:42:14.783Z,45.26
2023-03-28T21:44:41.409Z,46.24
2023-03-28T21:47:07.996Z,44.98
2023-03-28T21:49:34.581Z,44.88
2023-03-28T21:52:01.165Z,44.36
2023-03-28T21:54:27.742Z,44.98
2023-03-28T21:56:54.312Z,44.05
2023-03-28T21:59:21.061Z,44.48
2023-03-28T22:01:47.667Z,45.07
2023-03-28T22:04:14.569Z,44.40
2023-03-28T22:06:41.129Z,44.11
2023-03-28T22:09:10.132Z,45.88
2023-03-28T22:11:36.687Z,45.53
2023-03-28T22:14:03.300Z,44.60
2023-03-28T22:16:29.846Z,43.90
2023-03-28T22:18:56.399Z,43.54
2023-03-28T22:21:22.976Z,44.32
2023-03-28T22:23:49.556Z,44.64
2023-03-28T22:26:16.174Z,45.74
2023-03-28T22:28:42.819Z,44.85
2023-03-28T22:31:09.451Z,44.59
2023-03-28T22:33:36.115Z,44.89
2023-03-28T22:36:02.649Z,44.39
2023-03-28T22:38:29.317Z,46.83
2023-03-28T22:40:55.884Z,46.92
2023-03-28T22:43:22.453Z,46.11
2023-03-28T22:45:49.023Z,45.38
2023-03-28T22:48:15.646Z,45.73
2023-03-28T22:50:42.246Z,45.74
2023-03-28T22:53:08.823Z,45.69
2023-03-28T22:55:35.442Z,46.08
2023-03-28T22:58:01.989Z,46.13
2023-03-28T23:00:28.668Z,46.62
2023-03-28T23:02:55.306Z,45.82
2023-03-28T23:05:22.177Z,45.83
2023-03-28T23:07:48.920Z,45.79
2023-03-28T23:10:15.693Z,44.95
2023-03-28T23:12:42.361Z,45.27
2023-03-28T23:15:09.127Z,45.49
2023-03-28T23:17:35.885Z,44.84
2023-03-28T23:20:02.515Z,45.53
2023-03-28T23:22:29.060Z,44.57
2023-03-28T23:24:56.165Z,44.34
2023-03-28T23:27:22.741Z,43.77
2023-03-28T23:29:49.331Z,43.76
2023-03-28T23:32:16.963Z,43.64
2023-03-28T23:34:43.581Z,42.86
2023-03-28T23:37:10.257Z,42.34
2023-03-28T23:39:36.821Z,43.67
2023-03-28T23:42:03.426Z,42.57
2023-03-28T23:44:29.994Z,43.63
2023-03-28T23:46:56.545Z,43.64
2023-03-28T23:49:23.156Z,43.51
2023-03-28T23:51:49.711Z,44.20
2023-03-28T23:54:16.286Z,43.93
2023-03-28T23:56:42.932Z,44.03
2023-03-28T23:59:09.672Z,44.09
